createdAt,value
2023-02-05T00:00:00.900Z,6.47
2023-02-05T00:05:02.444Z,6.50
2023-02-05T00:10:04.607Z,6.51
2023-02-05T00:15:06.516Z,6.50
2023-02-05T00:20:08.818Z,6.49
2023-02-05T00:25:10.387Z,6.48
2023-02-05T00:30:12.536Z,6.47
2023-02-05T00:35:14.170Z,6.52
2023-02-05T00:40:15.699Z,6.55
2023-02-05T00:45:17.368Z,6.59
2023-02-05T00:50:18.922Z,6.58
2023-02-05T00:55:20.557Z,6.56
2023-02-05T01:00:22.475Z,6.62
2023-02-05T01:05:23.980Z,6.57
2023-02-05T01:10:25.657Z,6.59
2023-02-05T01:15:27.332Z,6.61
2023-02-05T01:20:29.087Z,6.63
2023-02-05T01:25:30.890Z,6.66
2023-02-05T01:30:32.936Z,6.66
2023-02-05T01:35:34.867Z,6.65
2023-02-05T01:40:36.888Z,6.64
2023-02-05T01:45:41.175Z,6.67
2023-02-05T01:50:47.893Z,6.65
2023-02-05T01:55:59.988Z,6.66
2023-02-05T02:01:01.538Z,6.60
2023-02-05T02:06:04.831Z,6.57
2023-02-05T02:11:09.270Z,6.52
2023-02-05T02:16:11.964Z,6.44
2023-02-05T02:21:32.246Z,6.39
2023-02-05T02:26:52.464Z,6.39
2023-02-05T02:32:04.842Z,6.35
2023-02-05T02:37:14.765Z,6.34
2023-02-05T02:42:26.315Z,6.35
2023-02-05T02:47:37.753Z,6.32
2023-02-05T02:52:42.446Z,6.37
2023-02-05T02:57:46.325Z,6.41
2023-02-05T03:02:50.421Z,6.43
2023-02-05T03:07:56.391Z,6.43
2023-02-05T03:12:57.948Z,6.47
2023-02-05T03:17:59.567Z,6.50
2023-02-05T03:23:01.151Z,6.51
2023-02-05T03:28:03.025Z,6.50
2023-02-05T03:33:16.700Z,6.48
2023-02-05T03:38:56.745Z,6.46
2023-02-05T03:44:10.255Z,6.40
2023-02-05T03:49:17.682Z,6.41
2023-02-05T03:54:46.380Z,6.48
2023-02-05T03:59:49.904Z,6.50
2023-02-05T04:04:51.445Z,6.49
2023-02-05T04:09:52.968Z,6.50
2023-02-05T04:14:54.452Z,6.43
2023-02-05T04:19:55.927Z,6.36
2023-02-05T04:24:57.457Z,6.35
2023-02-05T04:29:59.035Z,6.32
2023-02-05T04:35:00.548Z,6.31
2023-02-05T04:40:02.058Z,6.21
2023-02-05T04:45:05.861Z,6.08
2023-02-05T04:50:07.447Z,5.84
2023-02-05T04:55:09.004Z,5.65
2023-02-05T05:00:11.443Z,5.53
2023-02-05T05:05:13.049Z,5.44
2023-02-05T05:10:14.569Z,5.38
2023-02-05T05:15:16.347Z,5.35
2023-02-05T05:20:18.052Z,5.24
2023-02-05T05:25:19.596Z,5.10
2023-02-05T05:30:21.174Z,5.07
2023-02-05T05:35:22.702Z,5.08
2023-02-05T05:40:42.866Z,5.13
2023-02-05T05:45:44.439Z,5.19
2023-02-05T05:50:46.590Z,5.22
2023-02-05T05:55:48.489Z,5.22
2023-02-05T06:00:50.479Z,5.18
2023-02-05T06:05:51.999Z,5.13
2023-02-05T06:10:53.549Z,5.13
2023-02-05T06:15:55.285Z,5.20
2023-02-05T06:20:56.894Z,5.25
2023-02-05T06:25:58.597Z,5.28
2023-02-05T06:31:00.241Z,5.25
2023-02-05T06:36:01.831Z,5.28
2023-02-05T06:41:03.403Z,5.32
2023-02-05T06:46:04.935Z,5.34
2023-02-05T06:51:06.558Z,5.33
2023-02-05T06:56:08.060Z,5.27
2023-02-05T07:01:09.684Z,5.33
2023-02-05T07:06:11.271Z,5.27
2023-02-05T07:11:12.812Z,5.26
2023-02-05T07:16:14.320Z,5.33
2023-02-05T07:21:17.157Z,5.36
2023-02-05T07:26:18.713Z,5.42
2023-02-05T07:31:20.379Z,5.41
2023-02-05T07:36:22.034Z,5.52
2023-02-05T07:41:23.807Z,5.62
2023-02-05T07:46:25.402Z,5.66
2023-02-05T07:51:27.208Z,5.62
2023-02-05T07:56:28.788Z,5.61
2023-02-05T08:01:30.358Z,5.59
2023-02-05T08:06:33.547Z,5.66
2023-02-05T08:11:35.132Z,5.72
2023-02-05T08:16:36.688Z,5.78
2023-02-05T08:21:38.260Z,5.82
2023-02-05T08:26:40.310Z,5.80
2023-02-05T08:31:41.883Z,5.82
2023-02-05T08:36:43.431Z,5.86
2023-02-05T08:41:44.987Z,5.97
2023-02-05T08:46:50.264Z,5.92
2023-02-05T08:51:52.087Z,5.88
2023-02-05T08:56:53.627Z,6.01
2023-02-05T09:01:55.121Z,6.07
2023-02-05T09:06:56.695Z,6.26
2023-02-05T09:11:58.779Z,6.34
2023-02-05T09:17:00.286Z,6.29
2023-02-05T09:22:02.021Z,6.22
2023-02-05T09:27:06.351Z,6.19
2023-02-05T09:32:08.482Z,6.23
2023-02-05T09:37:10.036Z,6.38
2023-02-05T09:42:44.664Z,6.56
2023-02-05T09:47:59.912Z,6.66
2023-02-05T09:53:13.185Z,6.85
2023-02-05T09:58:23.423Z,6.94
2023-02-05T10:03:32.253Z,7.10
2023-02-05T10:08:58.428Z,6.99
2023-02-05T10:14:11.550Z,7.10
2023-02-05T10:19:18.709Z,7.16
2023-02-05T10:24:38.544Z,7.03
2023-02-05T10:29:53.447Z,6.84
2023-02-05T10:35:23.047Z,6.94
2023-02-05T10:40:42.143Z,7.26
2023-02-05T10:45:44.428Z,7.28
2023-02-05T10:50:55.185Z,7.11
2023-02-05T10:55:59.172Z,6.91
2023-02-05T11:01:02.590Z,6.87
2023-02-05T11:06:10.282Z,6.97
2023-02-05T11:11:23.525Z,7.17
2023-02-05T11:16:36.638Z,7.36
2023-02-05T11:22:24.293Z,7.50
2023-02-05T11:27:29.350Z,7.61
2023-02-05T11:32:37.430Z,7.57
2023-02-05T11:37:40.556Z,7.52
2023-02-05T11:42:48.362Z,7.53
2023-02-05T11:47:51.146Z,7.51
2023-02-05T11:52:54.460Z,7.40
2023-02-05T11:58:02.402Z,7.43
2023-02-05T12:03:17.380Z,7.42
2023-02-05T12:08:24.823Z,7.41
2023-02-05T12:13:45.563Z,7.36
2023-02-05T12:19:15.597Z,7.38
2023-02-05T12:24:29.206Z,7.42
2023-02-05T12:29:52.514Z,7.47
2023-02-05T12:35:01.584Z,7.31
2023-02-05T12:40:09.625Z,7.21
2023-02-05T12:45:39.754Z,7.19
2023-02-05T12:51:32.771Z,7.19
2023-02-05T12:56:52.698Z,7.13
2023-02-05T13:02:01.362Z,7.05
2023-02-05T13:07:24.134Z,6.98
2023-02-05T13:12:29.927Z,6.97
2023-02-05T13:17:37.281Z,7.04
2023-02-05T13:23:05.867Z,7.02
2023-02-05T13:28:40.495Z,7.01
2023-02-05T13:33:43.648Z,7.05
2023-02-05T13:39:11.336Z,7.06
2023-02-05T13:44:50.429Z,6.98
2023-02-05T13:50:13.291Z,6.86
2023-02-05T13:55:21.138Z,6.85
2023-02-05T14:00:24.859Z,6.89
2023-02-05T14:05:32.936Z,6.91
2023-02-05T14:10:44.949Z,7.02
2023-02-05T14:15:46.657Z,6.96
2023-02-05T14:20:48.207Z,6.98
2023-02-05T14:26:04.989Z,7.01
2023-02-05T14:31:07.544Z,6.91
2023-02-05T14:36:15.200Z,6.79
2023-02-05T14:41:28.614Z,6.66
2023-02-05T14:46:44.957Z,6.61
2023-02-05T14:52:00.238Z,6.62
2023-02-05T14:57:42.604Z,6.51
2023-02-05T15:03:06.011Z,6.42
2023-02-05T15:08:29.350Z,6.33
2023-02-05T15:13:31.387Z,6.25
2023-02-05T15:18:37.614Z,6.17
2023-02-05T15:23:45.064Z,6.11
2023-02-05T15:28:59.988Z,6.03
2023-02-05T15:34:30.545Z,5.96
2023-02-05T15:40:09.658Z,5.98
2023-02-05T15:45:26.043Z,5.97
2023-02-05T15:50:28.895Z,5.91
2023-02-05T15:55:31.063Z,5.92
2023-02-05T16:00:34.669Z,5.93
2023-02-05T16:05:37.873Z,5.84
2023-02-05T16:10:52.252Z,5.70
2023-02-05T16:16:09.196Z,5.51
2023-02-05T16:21:25.752Z,5.50
2023-02-05T16:26:36.599Z,5.47
2023-02-05T16:31:38.475Z,5.49
2023-02-05T16:36:44.117Z,5.40
2023-02-05T16:41:46.000Z,5.34
2023-02-05T16:47:07.282Z,5.32
2023-02-05T16:52:26.347Z,5.23
2023-02-05T16:57:34.501Z,5.17
2023-02-05T17:02:41.570Z,5.16
2023-02-05T17:07:43.042Z,5.08
2023-02-05T17:13:05.192Z,5.03
2023-02-05T17:18:29.601Z,5.01
2023-02-05T17:23:31.112Z,4.98
2023-02-05T17:28:38.048Z,5.06
2023-02-05T17:33:39.528Z,5.00
2023-02-05T17:38:41.051Z,4.97
2023-02-05T17:43:42.629Z,4.93
2023-02-05T17:48:44.796Z,4.83
2023-02-05T17:53:46.774Z,4.76
2023-02-05T17:58:50.348Z,4.81
2023-02-05T18:03:51.861Z,4.86
2023-02-05T18:08:53.430Z,4.83
2023-02-05T18:13:54.905Z,4.76
2023-02-05T18:19:05.058Z,4.68
2023-02-05T18:24:06.655Z,4.72
2023-02-05T18:29:08.203Z,4.82
2023-02-05T18:34:09.703Z,4.88
2023-02-05T18:39:11.249Z,4.69
2023-02-05T18:44:12.823Z,4.60
2023-02-05T18:49:14.912Z,4.58
2023-02-05T18:54:17.101Z,4.63
2023-02-05T18:59:21.109Z,4.71
2023-02-05T19:04:24.242Z,4.70
2023-02-05T19:09:27.409Z,4.76
2023-02-05T19:14:28.982Z,4.68
2023-02-05T19:19:31.189Z,4.59
2023-02-05T19:24:33.171Z,4.64
2023-02-05T19:29:39.643Z,4.62
2023-02-05T19:34:43.310Z,4.62
2023-02-05T19:39:44.897Z,4.62
2023-02-05T19:44:46.456Z,4.61
2023-02-05T19:49:47.961Z,4.59
2023-02-05T19:54:49.438Z,4.49
2023-02-05T19:59:50.910Z,4.38
2023-02-05T20:04:52.530Z,4.32
2023-02-05T20:09:54.046Z,4.23
2023-02-05T20:14:55.646Z,4.05
2023-02-05T20:20:10.153Z,4.03
2023-02-05T20:25:14.058Z,4.05
2023-02-05T20:30:34.795Z,3.98
2023-02-05T20:35:36.556Z,3.91
2023-02-05T20:40:38.309Z,3.90
2023-02-05T20:45:39.810Z,3.89
2023-02-05T20:50:41.292Z,3.80
2023-02-05T20:55:42.794Z,3.77
2023-02-05T21:00:44.339Z,3.73
2023-02-05T21:05:45.885Z,3.68
2023-02-05T21:10:47.379Z,3.69
2023-02-05T21:15:58.110Z,3.65
2023-02-05T21:21:21.169Z,3.58
2023-02-05T21:26:34.568Z,3.54
2023-02-05T21:31:39.357Z,3.53
2023-02-05T21:36:41.263Z,3.56
2023-02-05T21:41:45.507Z,3.55
2023-02-05T21:46:47.240Z,3.61
2023-02-05T21:51:50.305Z,3.60
2023-02-05T21:56:51.852Z,3.70
2023-02-05T22:01:53.384Z,3.76
2023-02-05T22:06:54.945Z,3.89
2023-02-05T22:12:02.599Z,3.99
2023-02-05T22:17:04.090Z,4.09
2023-02-05T22:22:05.613Z,4.17
2023-02-05T22:27:07.119Z,4.26
2023-02-05T22:32:08.649Z,4.33
2023-02-05T22:37:10.172Z,4.41
2023-02-05T22:42:11.707Z,4.48
2023-02-05T22:47:13.209Z,4.55
2023-02-05T22:52:14.679Z,4.58
2023-02-05T22:57:16.147Z,4.59
2023-02-05T23:02:17.633Z,4.57
2023-02-05T23:07:19.144Z,4.59
2023-02-05T23:12:21.022Z,4.59
2023-02-05T23:17:22.942Z,4.63
2023-02-05T23:22:24.807Z,4.63
2023-02-05T23:27:27.889Z,4.65
2023-02-05T23:32:29.867Z,4.66
2023-02-05T23:37:31.916Z,4.61
2023-02-05T23:42:33.391Z,4.59
2023-02-05T23:47:34.932Z,4.55
2023-02-05T23:52:36.461Z,4.54
2023-02-05T23:57:37.974Z,4.49
